Terminal Aerodrome Forecast
Issued by NWS

Home | Current Version | Previous Version | Text Only | Print | Product List | Glossary On
Versions: 1 2 3 4 5 6 7 8 9 10 11 12 13 14 15 16 17 18 19 20
969
FTUS41 KILN 182324
TAFLCK
TAF
KLCK 182324Z 1900/1924 23017G32KT 5SM SHRA VCTS OVC015CB
      TEMPO 1900/1903 28025G35KT 2SM -SHRA OVC008
     FM190300 30023G35KT 5SM SHRA VCTS OVC011CB
     FM190500 30019G34KT P6SM VCSH OVC015
     FM190900 30015G28KT P6SM OVC018
     FM191500 30014G24KT P6SM OVC026
     FM192300 29012KT P6SM BKN035=

USA.gov is the U.S. government's official web portal to all federal, state and local government web resources and services.